createdAt,value
2023-05-16T00:01:13.604Z,100255.35
2023-05-16T00:03:43.561Z,100247.41
2023-05-16T00:06:13.420Z,100250.51
2023-05-16T00:08:42.825Z,100256.14
2023-05-16T00:11:12.718Z,100257.95
2023-05-16T00:13:43.278Z,100266.13
2023-05-16T00:16:14.866Z,100267.64
2023-05-16T00:18:46.005Z,100266.98
2023-05-16T00:21:15.409Z,100265.77
2023-05-16T00:23:45.705Z,100272.02
2023-05-16T00:26:15.845Z,100272.82
2023-05-16T00:28:46.995Z,100265.84
2023-05-16T00:31:16.461Z,100262.59
2023-05-16T00:33:47.557Z,100258.71
2023-05-16T00:36:17.166Z,100268.48
2023-05-16T00:38:49.701Z,100271.98
2023-05-16T00:41:19.415Z,100258.52
2023-05-16T00:43:49.031Z,100250.98
2023-05-16T00:46:18.698Z,100246.70
2023-05-16T00:48:48.139Z,100247.88
2023-05-16T00:51:18.925Z,100244.47
2023-05-16T00:53:48.907Z,100241.45
2023-05-16T00:56:19.817Z,100240.35
2023-05-16T00:58:53.792Z,100239.23
2023-05-16T01:01:27.750Z,100235.75
2023-05-16T01:03:57.592Z,100245.42
2023-05-16T01:06:27.444Z,100260.42
2023-05-16T01:08:57.154Z,100255.73
2023-05-16T01:11:45.266Z,100262.88
2023-05-16T01:14:26.267Z,100253.05
2023-05-16T01:17:23.196Z,100255.50
2023-05-16T01:20:11.766Z,100261.85
2023-05-16T01:22:48.221Z,100256.93
2023-05-16T01:25:47.242Z,100256.30
2023-05-16T01:28:19.066Z,100249.00
2023-05-16T01:30:48.711Z,100247.02
2023-05-16T01:33:19.097Z,100248.35
2023-05-16T01:36:04.715Z,100251.37
2023-05-16T01:38:45.450Z,100247.17
2023-05-16T01:41:39.952Z,100249.15
2023-05-16T01:44:23.280Z,100245.51
2023-05-16T01:47:00.471Z,100241.69
2023-05-16T01:49:37.617Z,100245.34
2023-05-16T01:52:14.199Z,100246.06
2023-05-16T01:54:50.527Z,100243.44
2023-05-16T01:57:24.957Z,100244.16
2023-05-16T01:59:54.451Z,100245.27
2023-05-16T02:02:23.874Z,100250.59
2023-05-16T02:04:54.913Z,100257.41
2023-05-16T02:07:26.201Z,100262.09
2023-05-16T02:09:55.746Z,100268.21
2023-05-16T02:12:26.518Z,100265.98
2023-05-16T02:14:56.141Z,100266.46
2023-05-16T02:17:25.555Z,100265.98
2023-05-16T02:19:55.366Z,100269.71
2023-05-16T02:22:24.616Z,100267.34
2023-05-16T02:24:55.494Z,100269.07
2023-05-16T02:27:25.867Z,100269.15
2023-05-16T02:29:55.139Z,100277.25
2023-05-16T02:32:24.516Z,100278.43
2023-05-16T02:34:54.758Z,100273.99
2023-05-16T02:37:25.223Z,100269.77
2023-05-16T02:39:55.003Z,100270.09
2023-05-16T02:42:28.390Z,100269.11
2023-05-16T02:44:58.576Z,100275.61
2023-05-16T02:47:28.610Z,100278.63
2023-05-16T02:49:58.034Z,100280.29
2023-05-16T02:52:27.308Z,100276.70
2023-05-16T02:55:09.874Z,100274.00
2023-05-16T02:57:46.303Z,100274.40
2023-05-16T03:00:18.508Z,100274.80
2023-05-16T03:02:48.608Z,100271.23
2023-05-16T03:05:18.824Z,100278.69
2023-05-16T03:07:48.735Z,100275.59
2023-05-16T03:10:18.642Z,100280.20
2023-05-16T03:12:49.197Z,100290.91
2023-05-16T03:15:18.554Z,100289.89
2023-05-16T03:17:49.325Z,100287.95
2023-05-16T03:20:19.389Z,100296.27
2023-05-16T03:22:48.954Z,100286.64
2023-05-16T03:25:18.819Z,100286.80
2023-05-16T03:27:48.862Z,100281.19
2023-05-16T03:30:21.182Z,100281.52
2023-05-16T03:32:50.510Z,100276.45
2023-05-16T03:35:20.860Z,100276.05
2023-05-16T03:37:51.678Z,100273.04
2023-05-16T03:40:22.290Z,100266.70
2023-05-16T03:42:51.632Z,100268.52
2023-05-16T03:45:21.121Z,100273.37
2023-05-16T03:47:53.365Z,100279.55
2023-05-16T03:50:23.119Z,100284.64
2023-05-16T03:52:54.163Z,100287.98
2023-05-16T03:55:24.666Z,100281.31
2023-05-16T03:57:55.515Z,100286.78
2023-05-16T04:00:25.833Z,100285.42
2023-05-16T04:02:55.350Z,100286.54
2023-05-16T04:05:25.506Z,100285.83
2023-05-16T04:07:55.599Z,100292.11
2023-05-16T04:10:25.536Z,100297.90
2023-05-16T04:12:55.230Z,100306.64
2023-05-16T04:15:25.291Z,100311.39
2023-05-16T04:17:55.509Z,100318.05
2023-05-16T04:20:24.959Z,100318.77
2023-05-16T04:22:55.094Z,100325.61
2023-05-16T04:25:24.743Z,100322.59
2023-05-16T04:27:54.415Z,100320.61
2023-05-16T04:30:24.147Z,100327.83
2023-05-16T04:32:54.052Z,100333.63
2023-05-16T04:35:23.625Z,100334.17
2023-05-16T04:37:53.407Z,100328.45
2023-05-16T04:40:25.028Z,100333.53
2023-05-16T04:42:55.964Z,100332.58
2023-05-16T04:45:25.732Z,100332.42
2023-05-16T04:47:55.392Z,100330.73
2023-05-16T04:50:25.178Z,100331.70
2023-05-16T04:52:56.560Z,100335.25
2023-05-16T04:55:26.592Z,100331.35
2023-05-16T04:57:55.987Z,100325.95
2023-05-16T05:00:27.912Z,100325.23
2023-05-16T05:02:57.330Z,100326.90
2023-05-16T05:05:27.067Z,100332.80
2023-05-16T05:07:58.411Z,100328.40
2023-05-16T05:10:28.232Z,100321.09
2023-05-16T05:12:58.915Z,100325.88
2023-05-16T05:15:29.255Z,100326.41
2023-05-16T05:18:01.381Z,100330.55
2023-05-16T05:20:31.037Z,100333.25
2023-05-16T05:23:00.716Z,100329.11
2023-05-16T05:25:30.535Z,100329.73
2023-05-16T05:28:00.050Z,100333.33
2023-05-16T05:30:29.577Z,100331.73
2023-05-16T05:33:00.586Z,100333.20
2023-05-16T05:35:33.248Z,100333.80
2023-05-16T05:38:02.488Z,100336.51
2023-05-16T05:40:32.895Z,100333.47
2023-05-16T05:43:02.459Z,100333.15
2023-05-16T05:45:32.185Z,100329.35
2023-05-16T05:48:02.142Z,100323.45
2023-05-16T05:50:31.426Z,100318.67
2023-05-16T05:53:01.152Z,100320.00
2023-05-16T05:55:31.059Z,100323.05
2023-05-16T05:58:00.610Z,100318.58
2023-05-16T06:00:30.926Z,100326.25
2023-05-16T06:03:01.083Z,100329.77
2023-05-16T06:05:30.951Z,100335.02
2023-05-16T06:08:00.990Z,100338.82
2023-05-16T06:10:30.586Z,100341.70
2023-05-16T06:13:01.229Z,100345.05
2023-05-16T06:15:30.552Z,100341.66
2023-05-16T06:18:00.348Z,100345.73
2023-05-16T06:20:30.027Z,100347.23
2023-05-16T06:23:00.030Z,100343.48
2023-05-16T06:25:30.810Z,100348.81
2023-05-16T06:28:00.767Z,100341.84
2023-05-16T06:30:30.576Z,100337.96
2023-05-16T06:33:00.490Z,100339.20
2023-05-16T06:35:30.378Z,100346.19
2023-05-16T06:37:59.752Z,100344.15
2023-05-16T06:40:29.190Z,100350.80
2023-05-16T06:42:58.888Z,100349.34
2023-05-16T06:45:31.672Z,100356.29
2023-05-16T06:48:01.638Z,100355.63
2023-05-16T06:50:31.250Z,100358.20
2023-05-16T06:53:01.316Z,100352.80
2023-05-16T06:55:31.654Z,100351.69
2023-05-16T06:58:01.148Z,100349.35
2023-05-16T07:00:30.570Z,100349.95
2023-05-16T07:03:00.949Z,100354.08
2023-05-16T07:05:31.482Z,100347.13
2023-05-16T07:08:01.065Z,100351.07
2023-05-16T07:10:31.192Z,100349.00
2023-05-16T07:13:01.754Z,100347.80
2023-05-16T07:15:32.070Z,100359.90
2023-05-16T07:18:02.884Z,100357.27
2023-05-16T07:20:32.865Z,100354.45
2023-05-16T07:23:02.902Z,100353.04
2023-05-16T07:25:32.883Z,100356.73
2023-05-16T07:28:02.548Z,100360.50
2023-05-16T07:30:32.567Z,100353.81
2023-05-16T07:33:02.156Z,100350.91
2023-05-16T07:35:31.581Z,100354.70
2023-05-16T07:38:01.172Z,100353.04
2023-05-16T07:40:30.995Z,100353.70
2023-05-16T07:43:00.876Z,100351.54
2023-05-16T07:45:30.908Z,100349.79
2023-05-16T07:48:01.067Z,100352.11
2023-05-16T07:50:31.000Z,100353.73
2023-05-16T07:53:00.528Z,100353.72
2023-05-16T07:55:29.830Z,100350.96
2023-05-16T07:57:59.762Z,100348.84
2023-05-16T08:00:30.426Z,100343.21
2023-05-16T08:03:00.038Z,100340.73
2023-05-16T08:05:30.085Z,100340.81
2023-05-16T08:08:03.566Z,100340.11
2023-05-16T08:10:33.804Z,100341.52
2023-05-16T08:13:04.551Z,100346.56
2023-05-16T08:15:34.381Z,100345.87
2023-05-16T08:18:04.381Z,100347.10
2023-05-16T08:20:34.703Z,100345.39
2023-05-16T08:23:04.708Z,100345.31
2023-05-16T08:25:34.388Z,100354.88
2023-05-16T08:28:04.073Z,100352.84
2023-05-16T08:30:33.284Z,100349.08
2023-05-16T08:33:05.378Z,100346.06
2023-05-16T08:35:35.753Z,100334.21
2023-05-16T08:38:05.308Z,100322.20
2023-05-16T08:40:35.557Z,100325.92
2023-05-16T08:43:05.705Z,100330.23
2023-05-16T08:45:35.605Z,100337.70
2023-05-16T08:48:09.483Z,100335.16
2023-05-16T08:50:43.389Z,100342.80
2023-05-16T08:53:18.510Z,100340.83
2023-05-16T08:55:49.118Z,100338.14
2023-05-16T08:58:20.483Z,100338.38
2023-05-16T09:00:50.660Z,100341.33
2023-05-16T09:03:21.852Z,100337.42
2023-05-16T09:05:51.757Z,100333.95
2023-05-16T09:08:21.454Z,100329.13
2023-05-16T09:10:51.074Z,100331.04
2023-05-16T09:13:20.732Z,100336.10
2023-05-16T09:16:15.905Z,100336.07
2023-05-16T09:18:54.527Z,100336.68
2023-05-16T09:21:32.392Z,100342.95
2023-05-16T09:24:10.519Z,100346.86
2023-05-16T09:26:40.969Z,100348.09
2023-05-16T09:29:15.096Z,100346.27
2023-05-16T09:31:45.104Z,100341.57
2023-05-16T09:34:14.379Z,100342.16
2023-05-16T09:36:45.024Z,100344.99
2023-05-16T09:39:16.555Z,100345.91
2023-05-16T09:41:46.598Z,100341.36
2023-05-16T09:44:19.388Z,100338.48
2023-05-16T09:46:54.180Z,100338.63
2023-05-16T09:49:25.974Z,100338.58
2023-05-16T09:51:56.360Z,100334.98
2023-05-16T09:54:35.046Z,100337.31
2023-05-16T09:57:05.773Z,100331.73
2023-05-16T09:59:41.397Z,100336.55
2023-05-16T10:02:11.708Z,100342.23
2023-05-16T10:04:42.169Z,100334.58
2023-05-16T10:07:14.336Z,100331.46
2023-05-16T10:09:44.769Z,100329.59
2023-05-16T10:12:16.591Z,100334.91
2023-05-16T10:14:47.627Z,100330.02
2023-05-16T10:17:18.774Z,100329.22
2023-05-16T10:19:50.262Z,100328.62
2023-05-16T10:22:23.380Z,100329.70
2023-05-16T10:25:13.514Z,100326.11
2023-05-16T10:27:43.454Z,100329.72
2023-05-16T10:30:13.854Z,100324.22
2023-05-16T10:32:45.109Z,100327.89
2023-05-16T10:35:14.761Z,100331.33
2023-05-16T10:37:46.084Z,100333.15
2023-05-16T10:40:17.256Z,100333.16
2023-05-16T10:43:09.627Z,100332.85
2023-05-16T10:45:42.557Z,100336.19
2023-05-16T10:48:13.651Z,100332.33
2023-05-16T10:50:47.408Z,100327.27
2023-05-16T10:53:21.997Z,100320.76
2023-05-16T10:56:00.760Z,100326.02
2023-05-16T10:58:39.665Z,100322.48
2023-05-16T11:01:32.142Z,100325.73
2023-05-16T11:04:08.654Z,100323.54
2023-05-16T11:06:52.526Z,100321.43
2023-05-16T11:09:24.489Z,100320.39
2023-05-16T11:12:04.199Z,100316.17
2023-05-16T11:14:33.652Z,100315.48
2023-05-16T11:17:22.302Z,100317.35
2023-05-16T11:19:52.496Z,100315.08
2023-05-16T11:22:35.353Z,100312.36
2023-05-16T11:25:15.805Z,100315.34
2023-05-16T11:27:48.582Z,100319.95
2023-05-16T11:30:20.675Z,100320.83
2023-05-16T11:32:51.000Z,100322.46
2023-05-16T11:35:21.769Z,100315.55
2023-05-16T11:37:51.575Z,100315.17
2023-05-16T11:40:21.494Z,100315.66
2023-05-16T11:42:52.015Z,100316.73
2023-05-16T11:45:25.115Z,100307.82
2023-05-16T11:47:54.902Z,100303.98
2023-05-16T11:50:24.535Z,100312.14
2023-05-16T11:52:57.540Z,100313.30
2023-05-16T11:58:08.146Z,100306.77
2023-05-16T12:00:37.996Z,100307.27
2023-05-16T12:03:08.794Z,100309.44
2023-05-16T12:05:38.411Z,100313.25
2023-05-16T12:08:11.603Z,100318.89
2023-05-16T12:10:42.218Z,100316.54
2023-05-16T12:13:12.554Z,100321.30
2023-05-16T12:15:43.184Z,100320.81
2023-05-16T12:18:13.242Z,100319.21
2023-05-16T12:20:45.585Z,100319.86
2023-05-16T12:23:15.631Z,100319.92
2023-05-16T12:25:49.650Z,100316.79
2023-05-16T12:28:19.942Z,100314.64
2023-05-16T12:30:50.410Z,100317.20
2023-05-16T12:33:20.438Z,100317.13
2023-05-16T12:35:51.950Z,100320.48
2023-05-16T12:38:22.448Z,100323.98
2023-05-16T12:40:59.630Z,100313.50
2023-05-16T12:43:30.440Z,100309.77
2023-05-16T12:46:00.483Z,100305.23
2023-05-16T12:48:37.502Z,100308.36
2023-05-16T12:51:19.431Z,100303.77
2023-05-16T12:54:05.789Z,100306.05
2023-05-16T12:56:41.964Z,100306.55
2023-05-16T12:59:12.740Z,100308.02
2023-05-16T13:01:42.598Z,100308.08
2023-05-16T13:04:16.912Z,100312.21
2023-05-16T13:06:57.285Z,100310.83
2023-05-16T13:09:32.132Z,100309.79
2023-05-16T13:12:02.360Z,100312.23
2023-05-16T13:14:34.785Z,100306.25
2023-05-16T13:17:05.028Z,100301.77
2023-05-16T13:19:34.937Z,100298.41
2023-05-16T13:22:04.402Z,100297.17
2023-05-16T13:24:33.977Z,100293.92
2023-05-16T13:27:03.130Z,100301.30
2023-05-16T13:29:32.651Z,100300.63
2023-05-16T13:32:02.485Z,100303.45
2023-05-16T13:34:32.616Z,100304.02
2023-05-16T13:37:01.921Z,100300.85
2023-05-16T13:39:31.111Z,100301.02
2023-05-16T13:42:00.613Z,100302.73
2023-05-16T13:44:30.623Z,100306.88
2023-05-16T13:47:00.571Z,100311.67
2023-05-16T13:49:30.133Z,100315.39
2023-05-16T13:51:59.282Z,100319.86
2023-05-16T13:54:28.430Z,100317.02
2023-05-16T13:56:57.884Z,100314.95
2023-05-16T13:59:41.065Z,100308.77
2023-05-16T14:02:16.669Z,100310.23
2023-05-16T14:04:47.762Z,100311.96
2023-05-16T14:07:19.761Z,100313.47
2023-05-16T14:09:49.046Z,100313.10
2023-05-16T14:12:18.501Z,100313.39
2023-05-16T14:14:47.668Z,100315.30
2023-05-16T14:17:16.810Z,100320.55
2023-05-16T14:19:46.237Z,100318.38
2023-05-16T14:22:15.309Z,100316.67
2023-05-16T14:24:44.740Z,100315.20
2023-05-16T14:27:15.509Z,100313.90
2023-05-16T14:29:44.645Z,100314.86
2023-05-16T14:32:14.876Z,100314.91
2023-05-16T14:34:44.019Z,100311.93
2023-05-16T14:37:14.601Z,100316.17
2023-05-16T14:39:46.844Z,100311.92
2023-05-16T14:42:16.220Z,100307.92
2023-05-16T14:44:45.668Z,100312.88
2023-05-16T14:47:14.992Z,100310.66
2023-05-16T14:49:44.137Z,100306.41
2023-05-16T14:52:13.535Z,100304.69
2023-05-16T14:54:42.825Z,100305.16
2023-05-16T14:57:11.919Z,100304.16
2023-05-16T14:59:41.229Z,100303.34
2023-05-16T15:02:10.305Z,100303.19
2023-05-16T15:04:39.424Z,100297.63
2023-05-16T15:07:08.796Z,100290.89
2023-05-16T15:09:37.921Z,100293.67
2023-05-16T15:12:08.583Z,100293.62
2023-05-16T15:14:38.063Z,100291.61
2023-05-16T15:17:09.038Z,100287.97
2023-05-16T15:19:38.570Z,100290.91
2023-05-16T15:22:09.303Z,100291.49
2023-05-16T15:24:38.771Z,100289.21
2023-05-16T15:27:08.218Z,100290.45
2023-05-16T15:29:37.411Z,100289.38
2023-05-16T15:32:07.548Z,100287.35
2023-05-16T15:34:36.841Z,100287.36
2023-05-16T15:37:06.265Z,100282.91
2023-05-16T15:39:36.354Z,100274.41
2023-05-16T15:44:39.310Z,100277.02
2023-05-16T15:47:09.308Z,100274.73
2023-05-16T15:49:38.675Z,100272.36
2023-05-16T15:52:08.809Z,100276.44
2023-05-16T15:54:38.342Z,100276.73
2023-05-16T15:57:07.788Z,100283.73
2023-05-16T15:59:37.064Z,100282.55
2023-05-16T16:02:06.869Z,100282.91
2023-05-16T16:04:36.370Z,100291.27
2023-05-16T16:07:05.843Z,100291.70
2023-05-16T16:09:35.598Z,100287.93
2023-05-16T16:12:05.056Z,100287.73
2023-05-16T16:14:34.350Z,100284.77
2023-05-16T16:17:05.350Z,100280.36
2023-05-16T16:19:34.536Z,100281.09
2023-05-16T16:22:03.866Z,100276.06
2023-05-16T16:24:33.129Z,100281.05
2023-05-16T16:27:02.151Z,100279.42
2023-05-16T16:29:31.214Z,100284.38
2023-05-16T16:32:00.440Z,100291.79
2023-05-16T16:34:29.981Z,100299.35
2023-05-16T16:36:59.219Z,100302.47
2023-05-16T16:39:30.587Z,100302.32
2023-05-16T16:42:02.029Z,100302.52
2023-05-16T16:44:31.309Z,100300.00
2023-05-16T16:47:00.549Z,100296.98
2023-05-16T16:49:31.587Z,100296.32
2023-05-16T16:52:00.579Z,100296.13
2023-05-16T16:54:30.050Z,100297.67
2023-05-16T16:56:59.454Z,100295.03
2023-05-16T16:59:28.749Z,100298.17
2023-05-16T17:01:58.121Z,100300.50
2023-05-16T17:04:27.283Z,100302.54
2023-05-16T17:06:56.375Z,100298.43
2023-05-16T17:09:27.406Z,100300.63
2023-05-16T17:11:58.751Z,100302.48
2023-05-16T17:14:29.517Z,100303.07
2023-05-16T17:17:00.575Z,100303.39
2023-05-16T17:19:30.308Z,100306.80
2023-05-16T17:21:59.848Z,100305.21
2023-05-16T17:24:29.408Z,100308.71
2023-05-16T17:26:59.314Z,100309.89
2023-05-16T17:29:28.901Z,100311.48
2023-05-16T17:31:58.795Z,100310.17
2023-05-16T17:34:28.315Z,100310.25
2023-05-16T17:36:57.973Z,100312.41
2023-05-16T17:39:27.890Z,100313.59
2023-05-16T17:41:58.436Z,100317.20
2023-05-16T17:44:28.341Z,100319.70
2023-05-16T17:46:58.256Z,100322.77
2023-05-16T17:49:28.360Z,100324.85
2023-05-16T17:51:58.610Z,100324.64
2023-05-16T17:54:31.430Z,100326.83
2023-05-16T17:57:02.688Z,100327.06
2023-05-16T17:59:32.618Z,100330.31
2023-05-16T18:02:04.354Z,100335.36
2023-05-16T18:04:34.183Z,100333.96
2023-05-16T18:07:03.861Z,100337.73
2023-05-16T18:09:34.022Z,100341.02
2023-05-16T18:12:03.834Z,100341.00
2023-05-16T18:14:34.265Z,100338.46
2023-05-16T18:17:04.977Z,100341.42
2023-05-16T18:19:34.613Z,100344.00
2023-05-16T18:22:07.424Z,100348.71
2023-05-16T18:24:37.870Z,100348.66
2023-05-16T18:27:07.892Z,100349.08
2023-05-16T18:29:37.494Z,100352.42
2023-05-16T18:32:07.736Z,100354.52
2023-05-16T18:34:37.221Z,100357.55
2023-05-16T18:37:07.164Z,100353.34
2023-05-16T18:39:37.832Z,100357.51
2023-05-16T18:42:08.079Z,100354.80
2023-05-16T18:44:38.030Z,100357.78
2023-05-16T18:47:07.932Z,100358.48
2023-05-16T18:49:40.849Z,100357.45
2023-05-16T18:52:11.812Z,100362.27
2023-05-16T18:54:41.834Z,100364.42
2023-05-16T18:57:13.478Z,100365.95
2023-05-16T18:59:43.651Z,100368.73
2023-05-16T19:02:13.591Z,100365.13
2023-05-16T19:04:43.440Z,100367.58
2023-05-16T19:07:13.156Z,100367.38
2023-05-16T19:09:42.569Z,100363.69
2023-05-16T19:12:11.998Z,100365.69
2023-05-16T19:14:41.859Z,100367.74
2023-05-16T19:17:12.019Z,100364.30
2023-05-16T19:19:41.573Z,100368.24
2023-05-16T19:22:11.621Z,100370.50
2023-05-16T19:24:41.960Z,100370.64
2023-05-16T19:27:12.131Z,100372.67
2023-05-16T19:29:42.261Z,100373.51
2023-05-16T19:32:15.009Z,100373.88
2023-05-16T19:34:44.803Z,100372.80
2023-05-16T19:37:14.424Z,100370.20
2023-05-16T19:39:44.784Z,100369.61
2023-05-16T19:42:14.076Z,100365.67
2023-05-16T19:44:44.217Z,100366.83
2023-05-16T19:47:15.853Z,100364.14
2023-05-16T19:49:46.116Z,100362.42
2023-05-16T19:52:16.384Z,100360.16
2023-05-16T19:54:46.589Z,100362.73
2023-05-16T19:57:16.529Z,100366.84
2023-05-16T19:59:46.591Z,100367.20
2023-05-16T20:02:21.145Z,100366.83
2023-05-16T20:04:52.720Z,100364.23
2023-05-16T20:07:26.168Z,100365.77
2023-05-16T20:09:56.029Z,100364.91
2023-05-16T20:12:26.656Z,100358.41
2023-05-16T20:14:56.829Z,100356.67
2023-05-16T20:17:27.091Z,100352.55
2023-05-16T20:19:56.933Z,100353.29
2023-05-16T20:22:27.046Z,100356.63
2023-05-16T20:24:56.930Z,100356.86
2023-05-16T20:27:26.589Z,100358.30
2023-05-16T20:29:57.502Z,100358.23
2023-05-16T20:32:28.091Z,100352.83
2023-05-16T20:34:57.985Z,100350.67
2023-05-16T20:37:28.083Z,100353.86
2023-05-16T20:39:57.569Z,100350.61
2023-05-16T20:42:27.507Z,100351.89
2023-05-16T20:44:57.084Z,100351.96
2023-05-16T20:47:26.841Z,100350.85
2023-05-16T20:49:56.808Z,100353.08
2023-05-16T20:52:28.519Z,100356.91
2023-05-16T20:54:59.185Z,100357.77
2023-05-16T20:57:29.148Z,100356.98
2023-05-16T20:59:58.503Z,100356.77
2023-05-16T21:02:28.406Z,100356.61
2023-05-16T21:05:02.061Z,100354.39
2023-05-16T21:07:36.099Z,100359.09
2023-05-16T21:10:06.516Z,100357.97
2023-05-16T21:12:36.633Z,100355.27
2023-05-16T21:15:07.383Z,100354.10
2023-05-16T21:17:37.297Z,100350.05
2023-05-16T21:20:08.534Z,100352.27
2023-05-16T21:22:38.945Z,100353.87
2023-05-16T21:25:09.455Z,100353.48
2023-05-16T21:27:39.082Z,100346.16
2023-05-16T21:30:09.276Z,100348.63
2023-05-16T21:32:42.161Z,100346.65
2023-05-16T21:35:11.833Z,100345.45
2023-05-16T21:37:41.334Z,100350.79
2023-05-16T21:40:14.917Z,100349.04
2023-05-16T21:42:44.956Z,100346.96
2023-05-16T21:45:17.504Z,100346.41
2023-05-16T21:47:48.031Z,100339.89
2023-05-16T21:50:18.769Z,100343.63
2023-05-16T21:52:48.974Z,100338.63
2023-05-16T21:55:18.853Z,100338.94
2023-05-16T21:57:48.746Z,100338.70
2023-05-16T22:00:18.890Z,100340.83
2023-05-16T22:02:49.165Z,100337.41
2023-05-16T22:05:21.720Z,100337.17
2023-05-16T22:07:52.012Z,100338.03
2023-05-16T22:10:21.846Z,100331.13
2023-05-16T22:12:51.472Z,100336.91
2023-05-16T22:15:21.282Z,100341.76
2023-05-16T22:17:51.712Z,100330.47
2023-05-16T22:20:21.796Z,100334.55
2023-05-16T22:22:52.572Z,100333.98
2023-05-16T22:25:22.448Z,100332.13
2023-05-16T22:27:53.074Z,100331.73
2023-05-16T22:30:22.735Z,100331.00
2023-05-16T22:32:52.689Z,100332.89
2023-05-16T22:35:23.701Z,100326.14
2023-05-16T22:37:53.097Z,100325.19
2023-05-16T22:40:22.754Z,100324.95
2023-05-16T22:42:52.319Z,100325.19
2023-05-16T22:45:21.917Z,100321.39
2023-05-16T22:47:51.585Z,100325.91
2023-05-16T22:50:21.690Z,100321.45
2023-05-16T22:52:51.250Z,100322.26
2023-05-16T22:55:20.913Z,100323.05
2023-05-16T22:57:50.812Z,100324.48
2023-05-16T23:00:23.022Z,100322.95
2023-05-16T23:02:53.392Z,100319.86
2023-05-16T23:05:23.189Z,100311.58
2023-05-16T23:07:52.618Z,100321.27
2023-05-16T23:10:22.163Z,100318.88
2023-05-16T23:12:51.707Z,100319.58
2023-05-16T23:15:22.200Z,100317.34
2023-05-16T23:17:52.209Z,100318.20
2023-05-16T23:20:22.871Z,100318.17
2023-05-16T23:22:52.959Z,100321.10
2023-05-16T23:25:22.337Z,100322.76
2023-05-16T23:27:51.982Z,100325.13
2023-05-16T23:30:21.803Z,100322.97
2023-05-16T23:32:54.923Z,100321.11
2023-05-16T23:35:24.648Z,100316.88
2023-05-16T23:37:54.177Z,100323.29
2023-05-16T23:40:24.005Z,100322.95
2023-05-16T23:42:53.531Z,100320.07
2023-05-16T23:45:23.128Z,100313.71
2023-05-16T23:47:52.865Z,100314.02
2023-05-16T23:50:23.917Z,100313.88
2023-05-16T23:52:54.084Z,100316.04
2023-05-16T23:55:23.608Z,100314.98
2023-05-16T23:57:53.424Z,100316.09
